Time;durP1;ratioP1;P1;durP2;ratioP2;P2;SDS_P1;SDS_P2;PMS_P1;PMS_P2;Temp;Humidity;BMP_temperature;BMP_pressure;BME280_temperature;BME280_humidity;BME280_pressure;Samples;Min_cycle;Max_cycle;Signal;HPM_P1;HPM_P2
2023/07/18 00:00:10;;;;;;;5.27;2.40;;;;;;;20.81;42.84;100366.03;30871479;28;97342;-67
2023/07/18 00:15:13;;;;;;;5.00;2.00;;;;;;;20.74;43.57;100405.91;30869899;28;97510;-67
2023/07/18 00:30:13;;;;;;;7.60;2.50;;;;;;;20.78;44.09;100402.50;30867571;28;96733;-70
2023/07/18 00:45:14;;;;;;;4.63;2.00;;;;;;;20.74;44.38;100433.00;30866945;28;96743;-70
2023/07/18 01:00:16;;;;;;;5.33;2.37;;;;;;;20.41;45.60;100467.56;30865445;28;96937;-70
2023/07/18 01:15:18;;;;;;;4.90;1.50;;;;;;;19.80;48.29;100466.63;30863780;28;96747;-67
2023/07/18 01:30:24;;;;;;;3.40;1.93;;;;;;;19.13;49.88;100464.53;30862042;28;97534;-70
2023/07/18 01:45:27;;;;;;;4.27;2.03;;;;;;;18.89;51.31;100482.34;30860341;28;96716;-70
2023/07/18 02:00:28;;;;;;;4.57;2.00;;;;;;;18.52;52.12;100480.28;30859474;28;97625;-71
2023/07/18 02:15:28;;;;;;;4.35;2.08;;;;;;;18.06;53.35;100511.78;30857739;28;96702;-70
2023/07/18 02:30:29;;;;;;;4.95;2.00;;;;;;;17.73;54.61;100542.28;30856433;28;97180;-70
2023/07/18 02:45:29;;;;;;;4.20;2.00;;;;;;;17.28;56.08;100549.31;30855499;28;96742;-69
2023/07/18 03:00:31;;;;;;;4.72;2.13;;;;;;;16.78;57.56;100566.59;30853355;28;97261;-71
2023/07/18 03:15:31;;;;;;;;;;;;;;;16.43;59.29;100574.72;30852404;28;96713;-69
2023/07/18 03:30:31;;;;;;;3.85;1.90;;;;;;;16.34;60.27;100578.59;30851927;28;98319;-70
2023/07/18 03:45:33;;;;;;;5.30;2.30;;;;;;;16.38;60.85;100585.25;30850228;28;96723;-71
2023/07/18 04:00:33;;;;;;;4.80;2.20;;;;;;;16.46;61.04;100600.38;30852851;28;97125;-70
2023/07/18 04:15:33;;;;;;;5.93;2.40;;;;;;;16.65;61.11;100613.09;30868673;28;99636;-71
2023/07/18 04:30:35;;;;;;;8.55;2.50;;;;;;;16.91;61.14;100616.97;30865348;28;114069;-71
2023/07/18 04:45:47;;;;;;;4.30;2.10;;;;;;;17.19;60.78;100634.84;30864297;28;97691;-68
2023/07/18 05:00:47;;;;;;;4.07;2.33;;;;;;;17.61;60.01;100637.41;30861047;28;98314;-69
2023/07/18 05:15:47;;;;;;;5.55;2.17;;;;;;;18.04;59.00;100655.88;30833452;28;98054;-68
2023/07/18 05:30:47;;;;;;;5.28;2.25;;;;;;;18.54;57.61;100672.41;30791474;28;107476;-68
2023/07/18 05:45:49;;;;;;;7.93;1.73;;;;;;;19.03;55.54;100672.91;30818156;28;113319;-70
2023/07/18 06:00:49;;;;;;;3.77;1.53;;;;;;;19.51;53.99;100678.91;30857692;28;96845;-70
2023/07/18 06:15:50;;;;;;;3.85;1.65;;;;;;;20.14;52.67;100683.44;30773977;28;97406;-68
2023/07/18 06:30:57;;;;;;;3.87;1.60;;;;;;;20.93;50.77;100691.81;30946963;28;97429;-66
2023/07/18 06:45:57;;;;;;;3.60;1.33;;;;;;;21.60;48.42;100684.72;30972454;28;97016;-66
2023/07/18 07:00:57;;;;;;;4.00;1.50;;;;;;;22.28;46.63;100702.38;30838248;28;106265;-70
2023/07/18 07:15:58;;;;;;;2.90;1.40;;;;;;;22.95;44.18;100689.44;30874479;28;98117;-68
2023/07/18 07:31:00;;;;;;;;;;;;;;;23.85;42.59;100684.31;30849082;28;104915;-68
2023/07/18 07:46:04;;;;;;;3.30;1.40;;;;;;;24.52;40.48;100690.81;30868909;28;96772;-68
2023/07/18 08:01:04;;;;;;;3.20;1.20;;;;;;;24.43;39.17;100676.81;30866045;28;96814;-67
2023/07/18 08:16:05;;;;;;;4.37;1.60;;;;;;;24.74;37.43;100673.69;30919938;28;97803;-67
2023/07/18 08:31:06;;;;;;;3.05;1.50;;;;;;;24.52;37.72;100663.56;30991470;28;97562;-67
2023/07/18 08:46:07;;;;;;;1.77;0.90;;;;;;;25.48;35.57;100654.09;31008921;28;96654;-69
2023/07/18 09:01:08;;;;;;;3.30;0.90;;;;;;;26.47;33.54;100652.91;31001205;28;97467;-68
2023/07/18 09:16:17;;;;;;;2.07;0.90;;;;;;;27.45;31.90;100624.00;30933392;28;98043;-68
2023/07/18 09:31:23;;;;;;;1.83;1.00;;;;;;;27.75;30.79;100611.41;30754270;28;96828;-70
2023/07/18 09:46:25;;;;;;;2.80;1.07;;;;;;;27.25;29.73;100605.63;30842886;28;96819;-69
2023/07/18 10:01:26;;;;;;;2.83;1.17;;;;;;;27.44;29.35;100588.72;30778617;28;97413;-69
2023/07/18 10:16:27;;;;;;;3.80;1.00;;;;;;;28.92;28.59;100567.44;30848156;28;96983;-69
2023/07/18 10:31:34;;;;;;;2.47;1.00;;;;;;;28.86;26.85;100552.97;30855302;28;96836;-66
2023/07/18 10:46:35;;;;;;;3.97;1.37;;;;;;;29.60;26.12;100530.16;30781805;28;97098;-66
2023/07/18 11:01:36;;;;;;;2.57;0.90;;;;;;;30.79;25.40;100506.75;30801522;28;97629;-67
2023/07/18 11:16:36;;;;;;;1.90;0.93;;;;;;;30.29;25.44;100496.16;30746546;28;96817;-67
2023/07/18 11:31:40;;;;;;;2.05;0.93;;;;;;;30.94;23.68;100468.00;30749715;28;97276;-67
2023/07/18 11:46:44;;;;;;;2.83;1.10;;;;;;;31.35;23.43;100437.03;30753110;28;97296;-67
2023/07/18 12:01:45;;;;;;;2.20;0.80;;;;;;;31.55;23.32;100419.28;30747110;28;96732;-66
2023/07/18 12:16:46;;;;;;;2.38;1.05;;;;;;;31.65;23.21;100396.28;30745752;28;101833;-67
2023/07/18 12:31:51;;;;;;;2.33;1.00;;;;;;;30.89;23.09;100393.81;30741289;28;96714;-67
2023/07/18 12:46:52;;;;;;;2.43;1.00;;;;;;;30.81;23.44;100375.25;30745514;28;96868;-67
2023/07/18 13:01:52;;;;;;;5.28;0.98;;;;;;;30.67;23.47;100334.81;30746929;28;100696;-70
2023/07/18 13:16:52;;;;;;;3.80;1.10;;;;;;;30.96;23.18;100327.41;30825931;28;96883;-67
2023/07/18 13:31:53;;;;;;;3.15;1.25;;;;;;;30.78;22.88;100340.13;30848052;28;97553;-66
2023/07/18 13:46:53;;;;;;;2.05;1.00;;;;;;;30.50;23.13;100307.09;30848342;28;97159;-66
2023/07/18 14:01:53;;;;;;;2.95;1.00;;;;;;;30.65;23.35;100287.56;30847085;28;97336;-67
2023/07/18 14:16:54;;;;;;;3.33;1.05;;;;;;;30.52;23.55;100275.44;30852106;28;97508;-67
2023/07/18 14:31:54;;;;;;;2.47;0.90;;;;;;;31.20;23.12;100253.78;30849894;28;113792;-67
2023/07/18 14:46:54;;;;;;;2.38;1.27;;;;;;;30.68;23.18;100234.72;30849844;28;119244;-67
2023/07/18 15:01:55;;;;;;;2.78;1.10;;;;;;;29.55;24.40;100253.00;30848810;28;96663;-67
2023/07/18 15:16:56;;;;;;;3.28;1.15;;;;;;;28.74;25.16;100255.66;30847830;28;96736;-67
2023/07/18 15:31:56;;;;;;;1.93;0.90;;;;;;;28.53;25.67;100225.69;30847535;28;96836;-67
2023/07/18 15:47:00;;;;;;;2.20;0.90;;;;;;;29.26;25.22;100199.09;30847355;28;103337;-67
2023/07/18 16:02:00;;;;;;;5.93;1.50;;;;;;;28.23;25.94;100174.75;30855144;28;96692;-67
2023/07/18 16:17:01;;;;;;;3.70;1.33;;;;;;;28.46;25.98;100151.22;30861607;28;96720;-67
2023/07/18 16:32:01;;;;;;;3.42;1.20;;;;;;;27.80;26.28;100126.13;30861578;28;98723;-67
2023/07/18 16:47:01;;;;;;;2.47;1.30;;;;;;;27.41;27.14;100125.06;30861636;28;96686;-67
2023/07/18 17:02:02;;;;;;;4.47;1.98;;;;;;;27.00;27.22;100114.34;30860986;28;97298;-67
2023/07/18 17:17:02;;;;;;;3.17;1.55;;;;;;;26.49;28.41;100090.78;30858121;28;96796;-67
2023/07/18 17:32:03;;;;;;;2.85;1.13;;;;;;;26.05;28.91;100080.53;30850906;28;97497;-66
2023/07/18 17:47:03;;;;;;;5.05;1.33;;;;;;;25.61;29.35;100079.22;30726347;28;97154;-66
2023/07/18 18:02:04;;;;;;;3.25;1.20;;;;;;;25.06;30.54;100062.53;30723210;28;97454;-66
2023/07/18 18:17:05;;;;;;;4.20;1.70;;;;;;;24.42;32.00;100054.38;30760544;28;96863;-66
2023/07/18 18:32:06;;;;;;;3.78;1.50;;;;;;;23.77;33.21;100059.16;30841641;28;97384;-65
2023/07/18 18:47:06;;;;;;;4.97;1.73;;;;;;;23.15;34.33;100074.97;30841329;28;97106;-67
2023/07/18 19:02:07;;;;;;;5.50;1.38;;;;;;;22.60;35.94;100074.06;30840529;28;107707;-66
2023/07/18 19:17:07;;;;;;;;;;;;;;;22.09;37.02;100072.28;30839667;28;96697;-66
2023/07/18 19:32:08;;;;;;;6.07;1.50;;;;;;;21.67;37.92;100067.31;30841394;28;98353;-66
2023/07/18 19:47:09;;;;;;;5.47;2.30;;;;;;;21.26;38.91;100063.91;30858628;28;97177;-66
2023/07/18 20:02:09;;;;;;;7.03;1.77;;;;;;;20.85;39.94;100053.16;30857000;28;96891;-66
2023/07/18 20:17:10;;;;;;;6.30;2.13;;;;;;;20.54;41.35;100065.22;30854212;28;109349;-66
2023/07/18 20:32:10;;;;;;;4.40;1.90;;;;;;;20.27;42.10;100081.97;30853652;28;97371;-66
2023/07/18 20:47:11;;;;;;;4.70;1.67;;;;;;;19.88;42.88;100068.13;30803833;28;99275;-66
2023/07/18 21:02:11;;;;;;;8.83;2.67;;;;;;;20.26;44.54;100059.50;30739597;28;103382;-66
2023/07/18 21:17:11;;;;;;;5.33;2.20;;;;;;;21.07;43.21;100053.28;30738817;28;97327;-66
2023/07/18 21:32:12;;;;;;;5.13;1.80;;;;;;;21.00;43.31;100054.50;30738522;28;97055;-66
2023/07/18 21:47:12;;;;;;;8.90;2.17;;;;;;;21.04;43.83;100042.94;30738073;28;97490;-66
2023/07/18 22:02:12;;;;;;;3.90;2.00;;;;;;;20.78;44.20;100038.94;30735542;28;108643;-66
2023/07/18 22:17:13;;;;;;;5.20;2.97;;;;;;;20.61;44.32;100028.84;30735275;28;97099;-66
2023/07/18 22:32:13;;;;;;;6.73;1.97;;;;;;;20.41;44.87;100017.63;30727573;28;97438;-66
2023/07/18 22:47:14;;;;;;;6.17;2.50;;;;;;;20.28;45.00;100013.28;30724268;28;96763;-66
2023/07/18 23:02:15;;;;;;;4.50;2.33;;;;;;;20.16;44.99;99994.41;30723181;28;97525;-66
2023/07/18 23:17:16;;;;;;;5.17;2.17;;;;;;;20.12;45.72;99979.72;30721115;28;96600;-66
2023/07/18 23:32:16;;;;;;;4.82;2.85;;;;;;;19.79;46.46;99960.34;30685303;28;1185363;-66
2023/07/18 23:47:16;;;;;;;5.00;2.80;;;;;;;19.13;46.72;99956.09;30728335;28;96900;-66
